createdAt,value
2023-07-07T00:01:08.766Z,3.47
2023-07-07T00:03:35.780Z,3.90
2023-07-07T00:06:02.409Z,3.45
2023-07-07T00:08:29.070Z,3.88
2023-07-07T00:10:55.719Z,3.97
2023-07-07T00:13:22.251Z,3.90
2023-07-07T00:15:48.679Z,3.92
2023-07-07T00:18:15.983Z,4.22
2023-07-07T00:20:42.711Z,3.95
2023-07-07T00:23:09.242Z,3.67
2023-07-07T00:25:35.647Z,3.85
2023-07-07T00:28:02.083Z,3.38
2023-07-07T00:30:28.585Z,4.03
2023-07-07T00:32:54.977Z,3.70
2023-07-07T00:35:21.399Z,4.22
2023-07-07T00:37:47.782Z,3.50
2023-07-07T00:40:14.229Z,3.67
2023-07-07T00:42:40.577Z,3.40
2023-07-07T00:45:11.684Z,3.88
2023-07-07T00:50:05.619Z,4.10
2023-07-07T00:52:32.336Z,4.13
2023-07-07T00:54:59.349Z,3.90
2023-07-07T00:57:26.400Z,4.30
2023-07-07T00:59:53.011Z,4.15
2023-07-07T01:02:26.325Z,4.32
2023-07-07T01:04:55.272Z,3.83
2023-07-07T01:07:24.323Z,3.92
2023-07-07T01:09:50.731Z,4.18
2023-07-07T01:12:17.124Z,3.67
2023-07-07T01:14:44.688Z,4.18
2023-07-07T01:17:31.509Z,3.72
2023-07-07T01:20:16.092Z,3.70
2023-07-07T01:23:02.755Z,4.05
2023-07-07T01:26:06.400Z,4.38
2023-07-07T01:28:54.820Z,4.05
2023-07-07T01:31:23.274Z,3.90
2023-07-07T01:33:49.795Z,3.80
2023-07-07T01:36:16.168Z,3.95
2023-07-07T01:38:44.365Z,4.10
2023-07-07T01:41:16.887Z,4.20
2023-07-07T01:43:48.981Z,4.38
2023-07-07T01:46:23.876Z,4.10
2023-07-07T01:48:56.750Z,3.80
2023-07-07T01:51:26.088Z,4.38
2023-07-07T01:53:53.283Z,4.45
2023-07-07T01:56:21.818Z,4.05
2023-07-07T01:58:48.885Z,4.20
2023-07-07T02:01:15.420Z,4.03
2023-07-07T02:03:41.882Z,4.22
2023-07-07T02:06:08.377Z,3.95
2023-07-07T02:08:36.029Z,3.92
2023-07-07T02:11:04.072Z,4.47
2023-07-07T02:13:30.473Z,4.60
2023-07-07T02:15:56.957Z,4.88
2023-07-07T02:18:27.915Z,4.70
2023-07-07T02:20:54.712Z,4.85
2023-07-07T02:23:21.105Z,4.50
2023-07-07T02:25:47.489Z,4.78
2023-07-07T02:28:13.917Z,5.15
2023-07-07T02:30:40.285Z,4.40
2023-07-07T02:33:09.647Z,4.40
2023-07-07T02:35:36.569Z,4.82
2023-07-07T02:38:03.080Z,3.88
2023-07-07T02:40:30.856Z,4.57
2023-07-07T02:42:57.286Z,3.92
2023-07-07T02:45:23.682Z,4.32
2023-07-07T02:47:50.154Z,4.97
2023-07-07T02:50:18.820Z,4.18
2023-07-07T02:52:45.426Z,4.00
2023-07-07T02:55:11.810Z,4.30
2023-07-07T02:57:38.235Z,4.22
2023-07-07T03:00:09.589Z,4.47
2023-07-07T03:02:36.153Z,4.25
2023-07-07T03:05:02.785Z,4.32
2023-07-07T03:07:29.153Z,4.80
2023-07-07T03:09:55.785Z,4.57
2023-07-07T03:12:22.166Z,4.63
2023-07-07T03:14:49.681Z,4.70
2023-07-07T03:17:17.445Z,4.35
2023-07-07T03:19:46.713Z,4.78
2023-07-07T03:22:18.318Z,4.72
2023-07-07T03:27:36.066Z,5.30
2023-07-07T03:30:03.324Z,5.15
2023-07-07T03:32:38.505Z,4.60
2023-07-07T03:35:05.781Z,5.60
2023-07-07T03:37:33.482Z,5.30
2023-07-07T03:40:00.586Z,5.28
2023-07-07T03:42:27.081Z,5.10
2023-07-07T03:44:54.249Z,5.20
2023-07-07T03:47:22.812Z,4.95
2023-07-07T03:49:51.038Z,4.32
2023-07-07T03:52:17.768Z,5.00
2023-07-07T03:54:45.484Z,5.28
2023-07-07T03:57:12.137Z,4.20
2023-07-07T03:59:38.815Z,4.78
2023-07-07T04:02:05.559Z,4.47
2023-07-07T04:04:32.774Z,4.75
2023-07-07T04:06:59.992Z,4.93
2023-07-07T04:09:26.818Z,4.70
2023-07-07T04:11:55.666Z,4.63
2023-07-07T04:14:26.250Z,4.78
2023-07-07T04:16:52.645Z,4.63
2023-07-07T04:19:19.210Z,4.65
2023-07-07T04:21:45.609Z,4.30
2023-07-07T04:24:11.956Z,4.93
2023-07-07T04:26:39.624Z,4.90
2023-07-07T04:29:05.987Z,5.28
2023-07-07T04:31:32.418Z,5.00
2023-07-07T04:33:59.068Z,5.13
2023-07-07T04:36:25.485Z,5.18
2023-07-07T04:38:51.912Z,4.78
2023-07-07T04:41:22.506Z,4.82
2023-07-07T04:43:52.884Z,4.80
2023-07-07T04:46:21.643Z,4.30
2023-07-07T04:48:49.366Z,4.35
2023-07-07T04:51:17.844Z,4.20
2023-07-07T04:53:44.373Z,4.18
2023-07-07T04:56:11.945Z,4.03
2023-07-07T04:58:39.532Z,4.35
2023-07-07T05:01:09.935Z,4.18
2023-07-07T05:03:36.951Z,4.03
2023-07-07T05:06:04.969Z,3.20
2023-07-07T05:08:33.020Z,4.65
2023-07-07T05:11:00.151Z,4.32
2023-07-07T05:13:27.546Z,4.30
2023-07-07T05:16:00.931Z,4.43
2023-07-07T05:18:27.804Z,4.75
2023-07-07T05:20:54.276Z,4.38
2023-07-07T05:23:20.731Z,4.53
2023-07-07T05:25:47.265Z,4.47
2023-07-07T05:28:13.654Z,4.20
2023-07-07T05:30:40.303Z,2.97
2023-07-07T05:33:06.812Z,3.17
2023-07-07T05:35:33.278Z,3.38
2023-07-07T05:38:01.416Z,2.88
2023-07-07T05:40:28.288Z,3.15
2023-07-07T05:42:54.925Z,2.20
2023-07-07T05:45:24.703Z,2.10
2023-07-07T05:47:51.241Z,2.55
2023-07-07T05:50:17.700Z,2.50
2023-07-07T05:52:44.107Z,2.25
2023-07-07T05:55:18.669Z,2.40
2023-07-07T05:57:45.036Z,2.33
2023-07-07T06:00:11.695Z,2.40
2023-07-07T06:02:39.134Z,2.20
2023-07-07T06:05:05.737Z,2.17
2023-07-07T06:07:32.203Z,2.17
2023-07-07T06:09:59.411Z,2.03
2023-07-07T06:12:25.927Z,2.22
2023-07-07T06:14:52.422Z,2.38
2023-07-07T06:17:18.843Z,2.00
2023-07-07T06:19:45.242Z,2.20
2023-07-07T06:22:11.613Z,2.13
2023-07-07T06:24:37.993Z,2.28
2023-07-07T06:27:04.550Z,2.22
2023-07-07T06:29:32.638Z,1.80
2023-07-07T06:31:59.104Z,2.20
2023-07-07T06:34:25.502Z,2.15
2023-07-07T06:36:53.030Z,1.80
2023-07-07T06:39:19.727Z,1.77
2023-07-07T06:41:46.203Z,1.70
2023-07-07T06:44:12.612Z,1.83
2023-07-07T06:46:39.805Z,1.85
2023-07-07T06:49:06.301Z,1.88
2023-07-07T06:51:32.685Z,2.00
2023-07-07T06:54:00.202Z,1.80
2023-07-07T06:56:26.605Z,1.85
2023-07-07T06:58:52.999Z,2.28
2023-07-07T07:01:19.449Z,1.80
2023-07-07T07:03:45.929Z,2.08
2023-07-07T07:06:13.096Z,2.25
2023-07-07T07:08:39.457Z,1.95
2023-07-07T07:11:07.415Z,1.85
2023-07-07T07:13:34.219Z,1.50
2023-07-07T07:16:00.728Z,1.90
2023-07-07T07:18:27.444Z,1.67
2023-07-07T07:20:55.504Z,1.98
2023-07-07T07:23:23.154Z,1.90
2023-07-07T07:28:32.769Z,1.95
2023-07-07T07:30:59.430Z,1.73
2023-07-07T07:33:26.101Z,1.90
2023-07-07T07:35:52.491Z,1.60
2023-07-07T07:38:19.618Z,2.03
2023-07-07T07:40:46.030Z,1.88
2023-07-07T07:43:12.570Z,1.65
2023-07-07T07:45:39.402Z,2.10
2023-07-07T07:48:06.196Z,2.00
2023-07-07T07:50:34.473Z,2.30
2023-07-07T07:53:01.279Z,1.80
2023-07-07T07:56:11.581Z,1.73
2023-07-07T07:58:38.612Z,1.57
2023-07-07T08:01:05.030Z,1.73
2023-07-07T08:03:31.462Z,1.70
2023-07-07T08:05:57.840Z,1.80
2023-07-07T08:08:24.197Z,1.60
2023-07-07T08:11:05.781Z,1.65
2023-07-07T08:13:40.392Z,1.75
2023-07-07T08:16:09.463Z,1.95
2023-07-07T08:18:35.864Z,2.67
2023-07-07T08:21:02.297Z,2.08
2023-07-07T08:23:28.772Z,1.55
2023-07-07T08:28:24.497Z,1.48
2023-07-07T08:30:51.117Z,1.65
2023-07-07T08:33:17.718Z,1.88
2023-07-07T08:35:44.102Z,1.90
2023-07-07T08:38:10.514Z,1.67
2023-07-07T08:40:43.700Z,1.20
2023-07-07T08:43:11.737Z,1.90
2023-07-07T08:45:39.804Z,1.33
2023-07-07T08:48:17.232Z,1.35
2023-07-07T08:50:48.248Z,1.80
2023-07-07T08:53:17.670Z,3.88
2023-07-07T08:56:03.141Z,1.75
2023-07-07T08:58:53.153Z,1.80
2023-07-07T09:01:33.287Z,1.48
2023-07-07T09:04:01.426Z,1.50
2023-07-07T09:06:40.336Z,1.50
2023-07-07T09:09:16.888Z,1.25
2023-07-07T09:12:02.198Z,3.47
2023-07-07T09:14:28.988Z,1.63
2023-07-07T09:17:00.450Z,1.20
2023-07-07T09:19:28.908Z,1.02
2023-07-07T09:21:59.226Z,0.90
2023-07-07T09:24:25.588Z,1.10
2023-07-07T09:26:55.565Z,1.10
2023-07-07T09:29:29.147Z,1.50
2023-07-07T09:31:55.888Z,0.88
2023-07-07T09:34:23.549Z,1.30
2023-07-07T09:37:05.466Z,1.95
2023-07-07T09:39:40.319Z,1.08
2023-07-07T09:42:19.517Z,1.58
2023-07-07T09:44:53.966Z,1.20
2023-07-07T09:47:26.468Z,1.13
2023-07-07T09:49:56.169Z,1.10
2023-07-07T09:52:25.590Z,0.90
2023-07-07T09:54:52.831Z,1.20
2023-07-07T09:57:42.527Z,1.23
2023-07-07T10:00:14.414Z,2.10
2023-07-07T10:02:41.002Z,1.35
2023-07-07T10:05:09.037Z,1.45
2023-07-07T10:07:37.324Z,0.88
2023-07-07T10:10:05.180Z,1.45
2023-07-07T10:12:36.303Z,1.42
2023-07-07T10:15:19.386Z,1.10
2023-07-07T10:17:57.403Z,1.13
2023-07-07T10:20:26.268Z,1.10
2023-07-07T10:22:52.633Z,1.23
2023-07-07T10:25:20.264Z,1.20
2023-07-07T10:27:52.890Z,1.17
2023-07-07T10:30:22.863Z,1.20
2023-07-07T10:32:53.854Z,1.25
2023-07-07T10:35:21.368Z,1.38
2023-07-07T10:37:47.929Z,1.20
2023-07-07T10:40:22.945Z,1.00
2023-07-07T10:42:57.055Z,1.48
2023-07-07T10:45:23.968Z,1.10
2023-07-07T10:47:51.163Z,1.00
2023-07-07T10:50:19.617Z,1.10
2023-07-07T10:55:38.532Z,1.10
2023-07-07T10:58:15.390Z,1.00
2023-07-07T11:00:52.908Z,0.98
2023-07-07T11:03:22.697Z,1.20
2023-07-07T11:06:03.973Z,1.50
2023-07-07T11:08:38.684Z,1.20
2023-07-07T11:11:14.138Z,1.50
2023-07-07T11:13:49.883Z,1.20
2023-07-07T11:16:26.390Z,0.90
2023-07-07T11:19:25.533Z,1.40
2023-07-07T11:22:11.041Z,1.30
2023-07-07T11:24:56.660Z,1.40
2023-07-07T11:27:29.521Z,1.30
2023-07-07T11:30:05.982Z,1.40
2023-07-07T11:32:39.125Z,1.33
2023-07-07T11:35:27.541Z,1.27
2023-07-07T11:38:02.789Z,1.20
2023-07-07T11:40:51.074Z,2.20
2023-07-07T11:43:25.245Z,1.50
2023-07-07T11:46:12.777Z,1.23
2023-07-07T11:48:59.553Z,1.50
2023-07-07T11:51:58.316Z,1.33
2023-07-07T11:54:25.201Z,1.20
2023-07-07T11:57:10.150Z,1.08
2023-07-07T11:59:48.233Z,1.30
2023-07-07T12:02:21.131Z,1.27
2023-07-07T12:04:48.939Z,1.30
2023-07-07T12:07:28.182Z,1.20
2023-07-07T12:10:02.952Z,1.20
2023-07-07T12:12:41.063Z,1.48
2023-07-07T12:15:23.701Z,1.40
2023-07-07T12:18:12.281Z,1.20
2023-07-07T12:20:44.987Z,1.10
2023-07-07T12:23:14.209Z,1.35
2023-07-07T12:26:13.694Z,1.20
2023-07-07T12:28:48.581Z,1.40
2023-07-07T12:31:15.863Z,1.27
2023-07-07T12:33:49.053Z,1.50
2023-07-07T12:36:33.235Z,1.20
2023-07-07T12:39:13.038Z,1.30
2023-07-07T12:41:42.036Z,1.40
2023-07-07T12:44:12.230Z,1.50
2023-07-07T12:46:47.231Z,1.73
2023-07-07T12:49:38.138Z,1.30
2023-07-07T12:55:14.059Z,1.17
2023-07-07T12:58:00.842Z,1.80
2023-07-07T13:00:30.406Z,1.20
2023-07-07T13:03:12.270Z,1.50
2023-07-07T13:05:47.070Z,1.55
2023-07-07T13:08:32.583Z,1.40
2023-07-07T13:11:02.182Z,1.77
2023-07-07T13:13:28.915Z,1.40
2023-07-07T13:15:55.557Z,1.25
2023-07-07T13:18:22.184Z,1.38
2023-07-07T13:20:49.573Z,2.17
2023-07-07T13:23:16.005Z,1.42
2023-07-07T13:25:46.987Z,1.30
2023-07-07T13:28:14.772Z,1.55
2023-07-07T13:30:42.953Z,1.50
2023-07-07T13:33:12.096Z,1.40
2023-07-07T13:35:42.549Z,1.50
2023-07-07T13:38:10.863Z,1.67
2023-07-07T13:40:38.055Z,1.52
2023-07-07T13:43:04.978Z,1.70
2023-07-07T13:45:33.165Z,1.60
2023-07-07T13:47:59.836Z,1.50
2023-07-07T13:50:28.674Z,1.30
2023-07-07T13:52:59.781Z,3.00
2023-07-07T13:55:33.971Z,1.40
2023-07-07T13:58:01.877Z,1.40
2023-07-07T14:00:30.251Z,1.83
2023-07-07T14:02:57.268Z,1.40
2023-07-07T14:05:24.979Z,1.70
2023-07-07T14:07:51.556Z,1.65
2023-07-07T14:10:21.179Z,1.50
2023-07-07T14:12:47.749Z,1.85
2023-07-07T14:15:14.302Z,1.50
2023-07-07T14:20:23.097Z,1.65
2023-07-07T14:22:49.666Z,1.83
2023-07-07T14:25:17.341Z,1.80
2023-07-07T14:27:44.415Z,1.63
2023-07-07T14:30:21.325Z,1.70
2023-07-07T14:32:48.555Z,1.38
2023-07-07T14:35:20.683Z,1.67
2023-07-07T14:37:49.951Z,2.42
2023-07-07T14:40:22.472Z,1.40
2023-07-07T14:42:52.485Z,1.83
2023-07-07T14:45:37.135Z,1.40
2023-07-07T14:48:03.599Z,1.60
2023-07-07T14:50:30.444Z,1.30
2023-07-07T14:52:57.305Z,1.60
2023-07-07T14:55:30.885Z,1.70
2023-07-07T14:57:58.595Z,1.45
2023-07-07T15:00:28.177Z,1.40
2023-07-07T15:02:54.691Z,1.65
2023-07-07T15:05:24.168Z,1.55
2023-07-07T15:07:50.863Z,1.70
2023-07-07T15:10:17.575Z,1.58
2023-07-07T15:12:44.212Z,1.52
2023-07-07T15:15:14.383Z,2.08
2023-07-07T15:17:40.888Z,1.90
2023-07-07T15:20:12.699Z,1.30
2023-07-07T15:22:39.044Z,1.40
2023-07-07T15:25:05.689Z,1.40
2023-07-07T15:27:32.066Z,1.80
2023-07-07T15:29:58.454Z,1.65
2023-07-07T15:32:24.960Z,1.88
2023-07-07T15:34:54.402Z,1.58
2023-07-07T15:37:21.134Z,1.50
2023-07-07T15:39:47.483Z,1.80
2023-07-07T15:42:14.721Z,1.67
2023-07-07T15:44:41.283Z,1.77
2023-07-07T15:50:19.480Z,1.88
2023-07-07T15:52:46.174Z,2.30
2023-07-07T15:55:12.794Z,1.80
2023-07-07T15:57:47.049Z,1.80
2023-07-07T16:00:29.546Z,1.30
2023-07-07T16:02:56.188Z,2.05
2023-07-07T16:05:22.942Z,1.75
2023-07-07T16:07:49.386Z,1.50
2023-07-07T16:10:16.081Z,1.88
2023-07-07T16:12:42.660Z,1.65
2023-07-07T16:15:09.695Z,1.40
2023-07-07T16:17:36.305Z,1.50
2023-07-07T16:20:22.052Z,1.73
2023-07-07T16:22:53.581Z,2.00
2023-07-07T16:25:20.418Z,1.52
2023-07-07T16:27:46.972Z,1.70
2023-07-07T16:30:19.116Z,1.63
2023-07-07T16:32:45.594Z,1.70
2023-07-07T16:35:12.676Z,1.80
2023-07-07T16:37:40.615Z,1.75
2023-07-07T16:40:18.302Z,1.85
2023-07-07T16:42:44.751Z,1.63
2023-07-07T16:45:11.524Z,1.48
2023-07-07T16:47:37.948Z,1.60
2023-07-07T16:50:23.243Z,1.70
2023-07-07T16:52:50.297Z,1.58
2023-07-07T16:55:16.969Z,2.08
2023-07-07T16:57:43.340Z,1.80
2023-07-07T17:00:20.252Z,1.60
2023-07-07T17:02:47.073Z,1.65
2023-07-07T17:05:14.400Z,2.00
2023-07-07T17:07:40.830Z,1.70
2023-07-07T17:10:18.189Z,1.42
2023-07-07T17:12:45.036Z,1.58
2023-07-07T17:15:12.270Z,1.67
2023-07-07T17:17:38.636Z,1.73
2023-07-07T17:20:15.888Z,2.10
2023-07-07T17:22:42.302Z,1.70
2023-07-07T17:25:11.213Z,1.40
2023-07-07T17:27:37.591Z,1.90
2023-07-07T17:30:14.020Z,1.98
2023-07-07T17:32:40.433Z,1.35
2023-07-07T17:35:07.185Z,1.90
2023-07-07T17:37:33.514Z,1.58
2023-07-07T17:39:59.902Z,1.98
2023-07-07T17:42:26.302Z,2.10
2023-07-07T17:44:52.705Z,2.45
2023-07-07T17:47:19.053Z,2.17
2023-07-07T17:49:45.465Z,1.98
2023-07-07T17:52:11.862Z,2.30
2023-07-07T17:54:38.247Z,2.03
2023-07-07T17:57:05.862Z,1.95
2023-07-07T17:59:32.276Z,1.70
2023-07-07T18:01:58.756Z,1.92
2023-07-07T18:04:25.202Z,1.80
2023-07-07T18:06:52.730Z,1.70
2023-07-07T18:09:19.430Z,2.17
2023-07-07T18:11:45.923Z,2.58
2023-07-07T18:14:12.411Z,2.10
2023-07-07T18:16:44.223Z,2.55
2023-07-07T18:19:27.311Z,2.25
2023-07-07T18:22:02.871Z,2.88
2023-07-07T18:24:29.754Z,2.30
2023-07-07T18:26:56.539Z,1.80
2023-07-07T18:29:23.540Z,1.85
2023-07-07T18:31:50.138Z,1.90
2023-07-07T18:34:17.118Z,1.88
2023-07-07T18:36:48.187Z,1.83
2023-07-07T18:39:25.412Z,1.80
2023-07-07T18:41:52.532Z,2.10
2023-07-07T18:44:20.141Z,2.03
2023-07-07T18:46:46.650Z,2.20
2023-07-07T18:49:13.855Z,2.10
2023-07-07T18:51:43.052Z,1.70
2023-07-07T18:54:10.205Z,1.80
2023-07-07T18:56:36.884Z,1.92
2023-07-07T18:59:09.502Z,2.30
2023-07-07T19:01:37.709Z,2.30
2023-07-07T19:04:04.539Z,2.85
2023-07-07T19:06:32.577Z,2.22
2023-07-07T19:08:59.858Z,2.30
2023-07-07T19:11:26.458Z,2.63
2023-07-07T19:13:52.994Z,2.53
2023-07-07T19:16:21.970Z,2.40
2023-07-07T19:18:49.831Z,2.50
2023-07-07T19:21:23.511Z,2.35
2023-07-07T19:23:50.647Z,2.70
2023-07-07T19:26:20.142Z,3.90
2023-07-07T19:28:46.680Z,4.13
2023-07-07T19:31:17.427Z,5.72
2023-07-07T19:36:18.176Z,4.85
2023-07-07T19:38:49.201Z,3.95
2023-07-07T19:41:17.369Z,3.10
2023-07-07T19:43:44.277Z,2.30
2023-07-07T19:46:17.061Z,3.03
2023-07-07T19:48:43.606Z,2.63
2023-07-07T19:51:15.046Z,2.70
2023-07-07T19:53:41.535Z,2.40
2023-07-07T19:56:09.771Z,2.65
2023-07-07T19:58:36.272Z,2.78
2023-07-07T20:01:08.402Z,2.65
2023-07-07T20:03:35.040Z,2.58
2023-07-07T20:06:01.879Z,2.90
2023-07-07T20:08:31.160Z,2.80
2023-07-07T20:10:59.117Z,2.65
2023-07-07T20:13:25.747Z,2.75
2023-07-07T20:15:52.362Z,2.63
2023-07-07T20:18:18.847Z,2.85
2023-07-07T20:20:45.320Z,2.83
2023-07-07T20:23:12.587Z,3.03
2023-07-07T20:25:39.358Z,2.65
2023-07-07T20:28:05.956Z,2.72
2023-07-07T20:30:32.483Z,2.85
2023-07-07T20:33:00.148Z,2.83
2023-07-07T20:35:26.676Z,2.95
2023-07-07T20:37:53.262Z,3.35
2023-07-07T20:40:21.944Z,3.30
2023-07-07T20:42:49.045Z,3.28
2023-07-07T20:45:15.636Z,3.08
2023-07-07T20:47:42.410Z,3.10
2023-07-07T20:50:25.004Z,3.20
2023-07-07T20:52:52.204Z,3.28
2023-07-07T20:55:19.361Z,3.45
2023-07-07T20:57:46.384Z,3.55
2023-07-07T21:00:18.450Z,3.67
2023-07-07T21:02:45.051Z,3.53
2023-07-07T21:05:11.513Z,3.10
2023-07-07T21:07:38.071Z,3.20
2023-07-07T21:10:14.097Z,3.30
2023-07-07T21:12:40.655Z,2.92
2023-07-07T21:15:07.399Z,3.17
2023-07-07T21:17:34.718Z,3.58
2023-07-07T21:20:12.499Z,3.85
2023-07-07T21:22:38.992Z,3.33
2023-07-07T21:25:05.635Z,3.60
2023-07-07T21:27:32.233Z,3.67
2023-07-07T21:29:59.055Z,3.80
2023-07-07T21:32:26.972Z,3.40
2023-07-07T21:34:53.606Z,4.18
2023-07-07T21:37:21.845Z,3.50
2023-07-07T21:39:48.617Z,3.50
2023-07-07T21:42:15.109Z,3.67
2023-07-07T21:44:42.375Z,3.70
2023-07-07T21:47:12.514Z,3.58
2023-07-07T21:49:39.118Z,3.97
2023-07-07T21:52:11.800Z,3.80
2023-07-07T21:54:38.406Z,3.95
2023-07-07T21:57:14.297Z,3.88
2023-07-07T21:59:40.906Z,3.60
2023-07-07T22:02:11.182Z,3.75
2023-07-07T22:04:37.761Z,4.10
2023-07-07T22:07:04.400Z,3.88
2023-07-07T22:09:30.926Z,3.60
2023-07-07T22:11:58.794Z,3.70
2023-07-07T22:14:25.328Z,3.95
2023-07-07T22:16:51.914Z,4.00
2023-07-07T22:19:18.531Z,4.20
2023-07-07T22:21:44.929Z,4.10
2023-07-07T22:24:13.012Z,3.95
2023-07-07T22:26:39.417Z,3.75
2023-07-07T22:29:05.813Z,3.53
2023-07-07T22:31:32.241Z,4.05
2023-07-07T22:33:58.732Z,4.18
2023-07-07T22:36:26.252Z,4.07
2023-07-07T22:38:52.894Z,4.30
2023-07-07T22:41:20.934Z,3.88
2023-07-07T22:43:47.343Z,4.18
2023-07-07T22:46:23.989Z,3.85
2023-07-07T22:48:50.656Z,4.55
2023-07-07T22:51:17.185Z,4.18
2023-07-07T22:53:43.744Z,4.40
2023-07-07T22:56:22.613Z,4.00
2023-07-07T22:58:49.337Z,3.88
2023-07-07T23:01:15.726Z,4.50
2023-07-07T23:03:42.878Z,4.50
2023-07-07T23:06:11.336Z,4.15
2023-07-07T23:08:37.790Z,4.45
2023-07-07T23:11:09.132Z,4.80
2023-07-07T23:13:35.539Z,4.68
2023-07-07T23:16:02.016Z,4.78
2023-07-07T23:18:28.497Z,4.40
2023-07-07T23:20:54.934Z,4.10
2023-07-07T23:23:24.327Z,4.40
2023-07-07T23:25:58.033Z,4.88
2023-07-07T23:28:27.598Z,5.00
2023-07-07T23:31:05.240Z,4.82
2023-07-07T23:33:33.337Z,4.55
2023-07-07T23:36:00.326Z,4.60
2023-07-07T23:38:27.732Z,4.75
2023-07-07T23:40:54.393Z,5.20
2023-07-07T23:43:20.942Z,4.82
2023-07-07T23:45:47.675Z,4.45
2023-07-07T23:48:15.408Z,4.70
2023-07-07T23:50:46.982Z,5.00
2023-07-07T23:53:13.393Z,5.03
2023-07-07T23:55:39.962Z,4.93
2023-07-07T23:58:08.898Z,4.85
